sensor_id;sensor_type;location;lat;lon;timestamp;P1;durP1;ratioP1;P2;durP2;ratioP2
5343;SDS011;2694;48.950;8.970;2023-01-08T00:00:55;7.00;;;4.13;;
5343;SDS011;2694;48.950;8.970;2023-01-08T00:03:22;8.52;;;4.68;;
5343;SDS011;2694;48.950;8.970;2023-01-08T00:05:49;6.97;;;4.60;;
5343;SDS011;2694;48.950;8.970;2023-01-08T00:08:16;6.03;;;4.15;;
5343;SDS011;2694;48.950;8.970;2023-01-08T00:10:43;8.15;;;4.60;;
5343;SDS011;2694;48.950;8.970;2023-01-08T00:13:10;6.68;;;4.50;;
5343;SDS011;2694;48.950;8.970;2023-01-08T00:15:39;7.43;;;4.80;;
5343;SDS011;2694;48.950;8.970;2023-01-08T00:18:06;7.55;;;5.60;;
5343;SDS011;2694;48.950;8.970;2023-01-08T00:20:33;8.75;;;4.80;;
5343;SDS011;2694;48.950;8.970;2023-01-08T00:23:00;7.32;;;4.50;;
5343;SDS011;2694;48.950;8.970;2023-01-08T00:25:27;6.10;;;4.00;;
5343;SDS011;2694;48.950;8.970;2023-01-08T00:27:54;6.53;;;4.10;;
5343;SDS011;2694;48.950;8.970;2023-01-08T00:30:21;7.57;;;4.00;;
5343;SDS011;2694;48.950;8.970;2023-01-08T00:32:49;6.82;;;4.30;;
5343;SDS011;2694;48.950;8.970;2023-01-08T00:35:16;7.32;;;4.00;;
5343;SDS011;2694;48.950;8.970;2023-01-08T00:37:43;7.35;;;4.60;;
5343;SDS011;2694;48.950;8.970;2023-01-08T00:40:10;6.35;;;3.40;;
5343;SDS011;2694;48.950;8.970;2023-01-08T00:42:37;7.30;;;4.50;;
5343;SDS011;2694;48.950;8.970;2023-01-08T00:45:05;6.05;;;3.60;;
5343;SDS011;2694;48.950;8.970;2023-01-08T00:47:32;6.70;;;4.28;;
5343;SDS011;2694;48.950;8.970;2023-01-08T00:50:01;7.03;;;4.30;;
5343;SDS011;2694;48.950;8.970;2023-01-08T00:52:28;7.15;;;3.90;;
5343;SDS011;2694;48.950;8.970;2023-01-08T00:54:55;6.95;;;4.15;;
5343;SDS011;2694;48.950;8.970;2023-01-08T00:57:22;7.38;;;3.90;;
5343;SDS011;2694;48.950;8.970;2023-01-08T00:59:49;6.95;;;4.40;;
5343;SDS011;2694;48.950;8.970;2023-01-08T01:02:16;5.90;;;4.05;;
5343;SDS011;2694;48.950;8.970;2023-01-08T01:04:43;9.43;;;4.53;;
5343;SDS011;2694;48.950;8.970;2023-01-08T01:07:11;6.57;;;4.45;;
5343;SDS011;2694;48.950;8.970;2023-01-08T01:09:38;8.52;;;4.50;;
5343;SDS011;2694;48.950;8.970;2023-01-08T01:12:06;7.63;;;4.82;;
5343;SDS011;2694;48.950;8.970;2023-01-08T01:14:33;8.15;;;4.18;;
5343;SDS011;2694;48.950;8.970;2023-01-08T01:17:02;7.43;;;4.65;;
5343;SDS011;2694;48.950;8.970;2023-01-08T01:19:29;7.03;;;4.20;;
5343;SDS011;2694;48.950;8.970;2023-01-08T01:21:56;6.47;;;4.50;;
5343;SDS011;2694;48.950;8.970;2023-01-08T01:24:25;8.00;;;4.50;;
5343;SDS011;2694;48.950;8.970;2023-01-08T01:26:51;7.00;;;4.80;;
5343;SDS011;2694;48.950;8.970;2023-01-08T01:29:20;9.35;;;5.07;;
5343;SDS011;2694;48.950;8.970;2023-01-08T01:31:47;8.25;;;4.72;;
5343;SDS011;2694;48.950;8.970;2023-01-08T01:34:14;8.50;;;4.90;;
5343;SDS011;2694;48.950;8.970;2023-01-08T01:36:42;7.60;;;4.60;;
5343;SDS011;2694;48.950;8.970;2023-01-08T01:39:09;6.90;;;4.50;;
5343;SDS011;2694;48.950;8.970;2023-01-08T01:41:38;6.50;;;3.78;;
5343;SDS011;2694;48.950;8.970;2023-01-08T01:47:04;7.72;;;4.03;;
5343;SDS011;2694;48.950;8.970;2023-01-08T01:49:36;7.15;;;4.47;;
5343;SDS011;2694;48.950;8.970;2023-01-08T01:52:04;8.45;;;4.38;;
5343;SDS011;2694;48.950;8.970;2023-01-08T01:54:34;6.45;;;4.05;;
5343;SDS011;2694;48.950;8.970;2023-01-08T01:57:03;6.78;;;4.22;;
5343;SDS011;2694;48.950;8.970;2023-01-08T01:59:31;6.40;;;3.92;;
5343;SDS011;2694;48.950;8.970;2023-01-08T02:01:59;7.07;;;4.28;;
5343;SDS011;2694;48.950;8.970;2023-01-08T02:04:26;6.47;;;4.47;;
5343;SDS011;2694;48.950;8.970;2023-01-08T02:06:55;7.88;;;5.20;;
5343;SDS011;2694;48.950;8.970;2023-01-08T02:09:29;10.70;;;5.67;;
5343;SDS011;2694;48.950;8.970;2023-01-08T02:12:08;10.23;;;5.70;;
5343;SDS011;2694;48.950;8.970;2023-01-08T02:14:48;8.95;;;4.50;;
5343;SDS011;2694;48.950;8.970;2023-01-08T02:17:26;8.00;;;4.87;;
5343;SDS011;2694;48.950;8.970;2023-01-08T02:20:02;9.63;;;5.05;;
5343;SDS011;2694;48.950;8.970;2023-01-08T02:22:38;13.53;;;6.87;;
5343;SDS011;2694;48.950;8.970;2023-01-08T02:25:17;9.80;;;5.63;;
5343;SDS011;2694;48.950;8.970;2023-01-08T02:27:56;10.88;;;5.43;;
5343;SDS011;2694;48.950;8.970;2023-01-08T02:30:26;7.60;;;5.40;;
5343;SDS011;2694;48.950;8.970;2023-01-08T02:32:52;7.63;;;5.07;;
5343;SDS011;2694;48.950;8.970;2023-01-08T02:35:20;9.10;;;5.30;;
5343;SDS011;2694;48.950;8.970;2023-01-08T02:37:46;9.90;;;5.90;;
5343;SDS011;2694;48.950;8.970;2023-01-08T02:40:17;9.30;;;5.50;;
5343;SDS011;2694;48.950;8.970;2023-01-08T02:42:52;11.53;;;5.40;;
5343;SDS011;2694;48.950;8.970;2023-01-08T02:45:35;8.70;;;5.75;;
5343;SDS011;2694;48.950;8.970;2023-01-08T02:48:10;9.30;;;5.30;;
5343;SDS011;2694;48.950;8.970;2023-01-08T02:50:40;10.32;;;5.60;;
5343;SDS011;2694;48.950;8.970;2023-01-08T02:53:12;8.65;;;5.50;;
5343;SDS011;2694;48.950;8.970;2023-01-08T02:55:43;8.10;;;4.90;;
5343;SDS011;2694;48.950;8.970;2023-01-08T02:58:15;10.18;;;5.53;;
5343;SDS011;2694;48.950;8.970;2023-01-08T03:00:43;7.85;;;5.30;;
5343;SDS011;2694;48.950;8.970;2023-01-08T03:03:13;10.35;;;5.68;;
5343;SDS011;2694;48.950;8.970;2023-01-08T03:05:44;7.95;;;5.47;;
5343;SDS011;2694;48.950;8.970;2023-01-08T03:08:13;8.07;;;5.20;;
5343;SDS011;2694;48.950;8.970;2023-01-08T03:10:41;9.88;;;5.35;;
5343;SDS011;2694;48.950;8.970;2023-01-08T03:13:15;8.63;;;5.40;;
5343;SDS011;2694;48.950;8.970;2023-01-08T03:15:47;7.18;;;5.10;;
5343;SDS011;2694;48.950;8.970;2023-01-08T03:18:20;7.97;;;4.70;;
5343;SDS011;2694;48.950;8.970;2023-01-08T03:20:50;9.73;;;5.70;;
5343;SDS011;2694;48.950;8.970;2023-01-08T03:23:18;11.13;;;5.75;;
5343;SDS011;2694;48.950;8.970;2023-01-08T03:25:47;7.67;;;5.40;;
5343;SDS011;2694;48.950;8.970;2023-01-08T03:28:16;9.02;;;5.10;;
5343;SDS011;2694;48.950;8.970;2023-01-08T03:30:46;8.00;;;5.40;;
5343;SDS011;2694;48.950;8.970;2023-01-08T03:33:15;6.97;;;5.05;;
5343;SDS011;2694;48.950;8.970;2023-01-08T03:35:44;12.55;;;5.38;;
5343;SDS011;2694;48.950;8.970;2023-01-08T03:38:16;9.63;;;5.60;;
5343;SDS011;2694;48.950;8.970;2023-01-08T03:40:47;8.77;;;5.40;;
5343;SDS011;2694;48.950;8.970;2023-01-08T03:43:20;8.60;;;5.30;;
5343;SDS011;2694;48.950;8.970;2023-01-08T03:45:48;10.10;;;4.53;;
5343;SDS011;2694;48.950;8.970;2023-01-08T03:48:19;7.82;;;4.50;;
5343;SDS011;2694;48.950;8.970;2023-01-08T03:50:47;9.00;;;5.75;;
5343;SDS011;2694;48.950;8.970;2023-01-08T03:53:14;8.10;;;5.20;;
5343;SDS011;2694;48.950;8.970;2023-01-08T03:55:41;8.77;;;5.40;;
5343;SDS011;2694;48.950;8.970;2023-01-08T03:58:09;8.48;;;5.28;;
5343;SDS011;2694;48.950;8.970;2023-01-08T04:00:37;10.68;;;5.80;;
5343;SDS011;2694;48.950;8.970;2023-01-08T04:03:04;8.25;;;5.00;;
5343;SDS011;2694;48.950;8.970;2023-01-08T04:05:32;8.73;;;5.80;;
5343;SDS011;2694;48.950;8.970;2023-01-08T04:07:59;7.40;;;4.97;;
5343;SDS011;2694;48.950;8.970;2023-01-08T04:10:26;7.18;;;4.90;;
5343;SDS011;2694;48.950;8.970;2023-01-08T04:12:53;9.00;;;5.70;;
5343;SDS011;2694;48.950;8.970;2023-01-08T04:15:20;14.48;;;5.70;;
5343;SDS011;2694;48.950;8.970;2023-01-08T04:17:48;9.50;;;5.38;;
5343;SDS011;2694;48.950;8.970;2023-01-08T04:20:15;7.25;;;4.70;;
5343;SDS011;2694;48.950;8.970;2023-01-08T04:22:42;9.88;;;5.63;;
5343;SDS011;2694;48.950;8.970;2023-01-08T04:25:09;9.35;;;5.00;;
5343;SDS011;2694;48.950;8.970;2023-01-08T04:27:36;8.27;;;5.30;;
5343;SDS011;2694;48.950;8.970;2023-01-08T04:30:03;7.43;;;5.20;;
5343;SDS011;2694;48.950;8.970;2023-01-08T04:32:31;7.15;;;4.88;;
5343;SDS011;2694;48.950;8.970;2023-01-08T04:34:59;7.47;;;5.10;;
5343;SDS011;2694;48.950;8.970;2023-01-08T04:37:26;7.80;;;5.10;;
5343;SDS011;2694;48.950;8.970;2023-01-08T04:39:53;8.18;;;5.30;;
5343;SDS011;2694;48.950;8.970;2023-01-08T04:42:20;10.00;;;5.60;;
5343;SDS011;2694;48.950;8.970;2023-01-08T04:44:47;10.02;;;5.03;;
5343;SDS011;2694;48.950;8.970;2023-01-08T04:47:14;6.97;;;4.77;;
5343;SDS011;2694;48.950;8.970;2023-01-08T04:49:42;8.73;;;5.47;;
5343;SDS011;2694;48.950;8.970;2023-01-08T04:52:10;8.40;;;5.33;;
5343;SDS011;2694;48.950;8.970;2023-01-08T04:54:37;9.80;;;5.20;;
5343;SDS011;2694;48.950;8.970;2023-01-08T04:57:04;7.43;;;4.40;;
5343;SDS011;2694;48.950;8.970;2023-01-08T04:59:31;7.68;;;5.32;;
5343;SDS011;2694;48.950;8.970;2023-01-08T05:01:59;8.60;;;5.23;;
5343;SDS011;2694;48.950;8.970;2023-01-08T05:04:26;7.97;;;4.78;;
5343;SDS011;2694;48.950;8.970;2023-01-08T05:06:53;6.50;;;4.40;;
5343;SDS011;2694;48.950;8.970;2023-01-08T05:09:21;8.73;;;4.80;;
5343;SDS011;2694;48.950;8.970;2023-01-08T05:11:48;8.90;;;5.05;;
5343;SDS011;2694;48.950;8.970;2023-01-08T05:14:15;6.88;;;4.63;;
5343;SDS011;2694;48.950;8.970;2023-01-08T05:16:42;4.32;;;3.67;;
5343;SDS011;2694;48.950;8.970;2023-01-08T05:19:09;3.87;;;2.00;;
5343;SDS011;2694;48.950;8.970;2023-01-08T05:21:36;2.13;;;1.42;;
5343;SDS011;2694;48.950;8.970;2023-01-08T05:24:03;2.00;;;1.40;;
5343;SDS011;2694;48.950;8.970;2023-01-08T05:26:32;2.83;;;1.50;;
5343;SDS011;2694;48.950;8.970;2023-01-08T05:28:59;2.70;;;1.50;;
5343;SDS011;2694;48.950;8.970;2023-01-08T05:31:26;3.25;;;1.30;;
5343;SDS011;2694;48.950;8.970;2023-01-08T05:33:53;1.35;;;1.10;;
5343;SDS011;2694;48.950;8.970;2023-01-08T05:36:22;2.15;;;1.25;;
5343;SDS011;2694;48.950;8.970;2023-01-08T05:38:49;2.80;;;1.63;;
5343;SDS011;2694;48.950;8.970;2023-01-08T05:41:16;2.10;;;1.40;;
5343;SDS011;2694;48.950;8.970;2023-01-08T05:43:44;2.45;;;1.50;;
5343;SDS011;2694;48.950;8.970;2023-01-08T05:46:11;2.15;;;1.58;;
5343;SDS011;2694;48.950;8.970;2023-01-08T05:48:38;4.32;;;1.60;;
5343;SDS011;2694;48.950;8.970;2023-01-08T05:51:05;2.20;;;1.40;;
5343;SDS011;2694;48.950;8.970;2023-01-08T05:53:32;3.90;;;1.70;;
5343;SDS011;2694;48.950;8.970;2023-01-08T05:56:00;2.47;;;1.50;;
5343;SDS011;2694;48.950;8.970;2023-01-08T05:58:28;1.98;;;1.63;;
5343;SDS011;2694;48.950;8.970;2023-01-08T06:01:01;2.88;;;1.80;;
5343;SDS011;2694;48.950;8.970;2023-01-08T06:03:29;3.22;;;2.00;;
5343;SDS011;2694;48.950;8.970;2023-01-08T06:05:57;1.63;;;1.23;;
5343;SDS011;2694;48.950;8.970;2023-01-08T06:08:25;1.90;;;1.30;;
5343;SDS011;2694;48.950;8.970;2023-01-08T06:10:52;1.65;;;1.13;;
5343;SDS011;2694;48.950;8.970;2023-01-08T06:13:19;2.78;;;1.55;;
5343;SDS011;2694;48.950;8.970;2023-01-08T06:15:46;2.95;;;1.23;;
5343;SDS011;2694;48.950;8.970;2023-01-08T06:18:15;2.80;;;1.20;;
5343;SDS011;2694;48.950;8.970;2023-01-08T06:20:42;2.60;;;1.30;;
5343;SDS011;2694;48.950;8.970;2023-01-08T06:23:09;1.65;;;0.98;;
5343;SDS011;2694;48.950;8.970;2023-01-08T06:25:36;1.77;;;1.00;;
5343;SDS011;2694;48.950;8.970;2023-01-08T06:28:03;1.25;;;0.90;;
5343;SDS011;2694;48.950;8.970;2023-01-08T06:30:31;1.35;;;0.90;;
5343;SDS011;2694;48.950;8.970;2023-01-08T06:32:58;1.00;;;0.90;;
5343;SDS011;2694;48.950;8.970;2023-01-08T06:35:27;8.52;;;4.55;;
5343;SDS011;2694;48.950;8.970;2023-01-08T06:37:54;1.50;;;1.10;;
5343;SDS011;2694;48.950;8.970;2023-01-08T06:40:21;1.10;;;1.00;;
5343;SDS011;2694;48.950;8.970;2023-01-08T06:42:49;1.90;;;0.73;;
5343;SDS011;2694;48.950;8.970;2023-01-08T06:45:16;1.48;;;0.60;;
5343;SDS011;2694;48.950;8.970;2023-01-08T06:47:43;1.10;;;0.60;;
5343;SDS011;2694;48.950;8.970;2023-01-08T06:50:10;2.15;;;0.88;;
5343;SDS011;2694;48.950;8.970;2023-01-08T06:52:41;1.20;;;0.95;;
5343;SDS011;2694;48.950;8.970;2023-01-08T06:55:08;1.00;;;0.70;;
5343;SDS011;2694;48.950;8.970;2023-01-08T06:57:35;1.40;;;0.60;;
5343;SDS011;2694;48.950;8.970;2023-01-08T07:00:06;2.10;;;0.60;;
5343;SDS011;2694;48.950;8.970;2023-01-08T07:02:33;1.10;;;0.50;;
5343;SDS011;2694;48.950;8.970;2023-01-08T07:05:00;1.20;;;0.50;;
5343;SDS011;2694;48.950;8.970;2023-01-08T07:07:27;1.33;;;0.60;;
5343;SDS011;2694;48.950;8.970;2023-01-08T07:09:56;2.10;;;0.60;;
5343;SDS011;2694;48.950;8.970;2023-01-08T07:12:23;0.88;;;0.60;;
5343;SDS011;2694;48.950;8.970;2023-01-08T07:14:50;1.42;;;0.75;;
5343;SDS011;2694;48.950;8.970;2023-01-08T07:17:17;1.70;;;0.50;;
5343;SDS011;2694;48.950;8.970;2023-01-08T07:19:44;1.73;;;0.50;;
5343;SDS011;2694;48.950;8.970;2023-01-08T07:22:11;1.40;;;0.60;;
5343;SDS011;2694;48.950;8.970;2023-01-08T07:24:38;1.05;;;0.50;;
5343;SDS011;2694;48.950;8.970;2023-01-08T07:27:06;1.10;;;0.50;;
5343;SDS011;2694;48.950;8.970;2023-01-08T07:29:33;1.20;;;0.80;;
5343;SDS011;2694;48.950;8.970;2023-01-08T07:32:01;0.97;;;0.67;;
5343;SDS011;2694;48.950;8.970;2023-01-08T07:34:27;0.77;;;0.50;;
5343;SDS011;2694;48.950;8.970;2023-01-08T07:36:55;1.23;;;0.80;;
5343;SDS011;2694;48.950;8.970;2023-01-08T07:39:22;0.90;;;0.60;;
5343;SDS011;2694;48.950;8.970;2023-01-08T07:41:49;1.90;;;0.63;;
5343;SDS011;2694;48.950;8.970;2023-01-08T07:44:17;4.13;;;0.90;;
5343;SDS011;2694;48.950;8.970;2023-01-08T07:46:44;3.15;;;0.98;;
5343;SDS011;2694;48.950;8.970;2023-01-08T07:49:11;2.65;;;1.00;;
5343;SDS011;2694;48.950;8.970;2023-01-08T07:51:38;1.50;;;0.50;;
5343;SDS011;2694;48.950;8.970;2023-01-08T07:54:05;1.02;;;0.50;;
5343;SDS011;2694;48.950;8.970;2023-01-08T07:56:32;1.40;;;0.70;;
5343;SDS011;2694;48.950;8.970;2023-01-08T07:58:59;1.05;;;0.77;;
5343;SDS011;2694;48.950;8.970;2023-01-08T08:01:27;1.60;;;0.70;;
5343;SDS011;2694;48.950;8.970;2023-01-08T08:03:54;0.70;;;0.45;;
5343;SDS011;2694;48.950;8.970;2023-01-08T08:06:21;2.22;;;0.73;;
5343;SDS011;2694;48.950;8.970;2023-01-08T08:08:48;1.75;;;1.20;;
5343;SDS011;2694;48.950;8.970;2023-01-08T08:11:15;0.80;;;0.60;;
5343;SDS011;2694;48.950;8.970;2023-01-08T08:13:42;2.13;;;1.08;;
5343;SDS011;2694;48.950;8.970;2023-01-08T08:16:11;1.10;;;0.55;;
5343;SDS011;2694;48.950;8.970;2023-01-08T08:18:40;1.02;;;0.50;;
5343;SDS011;2694;48.950;8.970;2023-01-08T08:21:07;1.35;;;0.77;;
5343;SDS011;2694;48.950;8.970;2023-01-08T08:23:34;1.20;;;0.60;;
5343;SDS011;2694;48.950;8.970;2023-01-08T08:26:01;1.90;;;0.43;;
5343;SDS011;2694;48.950;8.970;2023-01-08T08:28:29;0.60;;;0.57;;
5343;SDS011;2694;48.950;8.970;2023-01-08T08:30:56;1.10;;;0.50;;
5343;SDS011;2694;48.950;8.970;2023-01-08T08:33:23;0.90;;;0.70;;
5343;SDS011;2694;48.950;8.970;2023-01-08T08:35:51;0.70;;;0.52;;
5343;SDS011;2694;48.950;8.970;2023-01-08T08:38:18;0.70;;;0.50;;
5343;SDS011;2694;48.950;8.970;2023-01-08T08:40:45;1.90;;;0.50;;
5343;SDS011;2694;48.950;8.970;2023-01-08T08:43:12;2.50;;;0.60;;
5343;SDS011;2694;48.950;8.970;2023-01-08T08:45:39;3.38;;;0.70;;
5343;SDS011;2694;48.950;8.970;2023-01-08T08:48:06;1.10;;;0.70;;
5343;SDS011;2694;48.950;8.970;2023-01-08T08:50:34;1.30;;;0.77;;
5343;SDS011;2694;48.950;8.970;2023-01-08T08:53:03;1.40;;;0.85;;
5343;SDS011;2694;48.950;8.970;2023-01-08T08:55:31;0.88;;;0.50;;
5343;SDS011;2694;48.950;8.970;2023-01-08T08:58:02;1.17;;;0.47;;
5343;SDS011;2694;48.950;8.970;2023-01-08T09:00:30;2.05;;;0.45;;
5343;SDS011;2694;48.950;8.970;2023-01-08T09:02:57;0.90;;;0.40;;
5343;SDS011;2694;48.950;8.970;2023-01-08T09:05:24;1.25;;;0.73;;
5343;SDS011;2694;48.950;8.970;2023-01-08T09:07:53;0.90;;;0.60;;
5343;SDS011;2694;48.950;8.970;2023-01-08T09:10:22;0.80;;;0.50;;
5343;SDS011;2694;48.950;8.970;2023-01-08T09:12:54;1.25;;;0.90;;
5343;SDS011;2694;48.950;8.970;2023-01-08T09:15:22;1.40;;;0.45;;
5343;SDS011;2694;48.950;8.970;2023-01-08T09:17:52;1.33;;;0.52;;
5343;SDS011;2694;48.950;8.970;2023-01-08T09:20:20;1.30;;;0.70;;
5343;SDS011;2694;48.950;8.970;2023-01-08T09:22:48;3.38;;;0.95;;
5343;SDS011;2694;48.950;8.970;2023-01-08T09:25:15;1.25;;;0.80;;
5343;SDS011;2694;48.950;8.970;2023-01-08T09:27:44;0.90;;;0.60;;
5343;SDS011;2694;48.950;8.970;2023-01-08T09:30:11;1.90;;;0.50;;
5343;SDS011;2694;48.950;8.970;2023-01-08T09:32:38;0.70;;;0.40;;
5343;SDS011;2694;48.950;8.970;2023-01-08T09:35:06;1.40;;;0.40;;
5343;SDS011;2694;48.950;8.970;2023-01-08T09:37:33;3.00;;;1.38;;
5343;SDS011;2694;48.950;8.970;2023-01-08T09:40:00;1.00;;;0.40;;
5343;SDS011;2694;48.950;8.970;2023-01-08T09:42:27;1.50;;;0.47;;
5343;SDS011;2694;48.950;8.970;2023-01-08T09:44:56;1.08;;;0.40;;
5343;SDS011;2694;48.950;8.970;2023-01-08T09:47:26;3.55;;;0.50;;
5343;SDS011;2694;48.950;8.970;2023-01-08T09:49:57;0.60;;;0.40;;
5343;SDS011;2694;48.950;8.970;2023-01-08T09:52:27;1.10;;;0.50;;
5343;SDS011;2694;48.950;8.970;2023-01-08T09:54:56;1.30;;;0.50;;
5343;SDS011;2694;48.950;8.970;2023-01-08T09:57:23;1.00;;;0.52;;
5343;SDS011;2694;48.950;8.970;2023-01-08T09:59:53;2.25;;;0.80;;
5343;SDS011;2694;48.950;8.970;2023-01-08T10:02:22;1.60;;;0.50;;
5343;SDS011;2694;48.950;8.970;2023-01-08T10:04:53;7.50;;;3.30;;
5343;SDS011;2694;48.950;8.970;2023-01-08T10:07:23;2.13;;;1.00;;
5343;SDS011;2694;48.950;8.970;2023-01-08T10:09:50;1.70;;;0.90;;
5343;SDS011;2694;48.950;8.970;2023-01-08T10:12:19;1.40;;;1.25;;
5343;SDS011;2694;48.950;8.970;2023-01-08T10:14:51;2.08;;;1.60;;
5343;SDS011;2694;48.950;8.970;2023-01-08T10:17:24;2.33;;;0.97;;
5343;SDS011;2694;48.950;8.970;2023-01-08T10:19:54;2.13;;;1.40;;
5343;SDS011;2694;48.950;8.970;2023-01-08T10:22:21;1.60;;;1.08;;
5343;SDS011;2694;48.950;8.970;2023-01-08T10:24:49;0.90;;;0.68;;
5343;SDS011;2694;48.950;8.970;2023-01-08T10:27:17;1.20;;;0.70;;
5343;SDS011;2694;48.950;8.970;2023-01-08T10:29:46;0.70;;;0.50;;
5343;SDS011;2694;48.950;8.970;2023-01-08T10:32:16;3.17;;;0.90;;
5343;SDS011;2694;48.950;8.970;2023-01-08T10:34:47;0.90;;;0.70;;
5343;SDS011;2694;48.950;8.970;2023-01-08T10:37:20;1.40;;;0.70;;
5343;SDS011;2694;48.950;8.970;2023-01-08T10:39:49;2.25;;;1.23;;
5343;SDS011;2694;48.950;8.970;2023-01-08T10:42:18;0.90;;;0.65;;
5343;SDS011;2694;48.950;8.970;2023-01-08T10:44:49;1.35;;;0.90;;
5343;SDS011;2694;48.950;8.970;2023-01-08T10:47:21;2.30;;;1.20;;
5343;SDS011;2694;48.950;8.970;2023-01-08T10:49:50;2.73;;;1.10;;
5343;SDS011;2694;48.950;8.970;2023-01-08T10:52:22;2.08;;;1.33;;
5343;SDS011;2694;48.950;8.970;2023-01-08T10:54:51;3.00;;;1.60;;
5343;SDS011;2694;48.950;8.970;2023-01-08T10:57:20;3.70;;;2.13;;
5343;SDS011;2694;48.950;8.970;2023-01-08T10:59:48;3.25;;;1.80;;
5343;SDS011;2694;48.950;8.970;2023-01-08T11:02:18;4.90;;;2.63;;
5343;SDS011;2694;48.950;8.970;2023-01-08T11:04:56;2.80;;;1.90;;
5343;SDS011;2694;48.950;8.970;2023-01-08T11:07:24;1.60;;;1.20;;
5343;SDS011;2694;48.950;8.970;2023-01-08T11:09:53;2.10;;;0.90;;
5343;SDS011;2694;48.950;8.970;2023-01-08T11:12:25;1.50;;;0.80;;
5343;SDS011;2694;48.950;8.970;2023-01-08T11:14:59;1.50;;;0.90;;
5343;SDS011;2694;48.950;8.970;2023-01-08T11:17:27;2.70;;;1.40;;
5343;SDS011;2694;48.950;8.970;2023-01-08T11:20:06;3.85;;;1.67;;
5343;SDS011;2694;48.950;8.970;2023-01-08T11:22:37;4.40;;;1.80;;
5343;SDS011;2694;48.950;8.970;2023-01-08T11:25:07;2.78;;;1.52;;
5343;SDS011;2694;48.950;8.970;2023-01-08T11:27:40;3.70;;;1.95;;
5343;SDS011;2694;48.950;8.970;2023-01-08T11:30:10;4.15;;;1.85;;
5343;SDS011;2694;48.950;8.970;2023-01-08T11:32:42;3.80;;;2.20;;
5343;SDS011;2694;48.950;8.970;2023-01-08T11:35:16;2.92;;;1.50;;
5343;SDS011;2694;48.950;8.970;2023-01-08T11:37:48;3.72;;;1.60;;
5343;SDS011;2694;48.950;8.970;2023-01-08T11:40:20;2.72;;;1.90;;
5343;SDS011;2694;48.950;8.970;2023-01-08T11:42:57;2.83;;;1.67;;
5343;SDS011;2694;48.950;8.970;2023-01-08T11:45:56;4.97;;;2.80;;
5343;SDS011;2694;48.950;8.970;2023-01-08T11:48:49;4.95;;;2.60;;
5343;SDS011;2694;48.950;8.970;2023-01-08T11:51:38;4.20;;;2.20;;
5343;SDS011;2694;48.950;8.970;2023-01-08T11:54:20;5.10;;;2.28;;
5343;SDS011;2694;48.950;8.970;2023-01-08T11:56:59;2.20;;;1.40;;
5343;SDS011;2694;48.950;8.970;2023-01-08T11:59:44;2.92;;;1.50;;
5343;SDS011;2694;48.950;8.970;2023-01-08T12:02:21;2.60;;;1.70;;
5343;SDS011;2694;48.950;8.970;2023-01-08T12:05:03;3.10;;;1.67;;
5343;SDS011;2694;48.950;8.970;2023-01-08T12:07:57;6.03;;;3.53;;
5343;SDS011;2694;48.950;8.970;2023-01-08T12:10:29;6.70;;;3.72;;
5343;SDS011;2694;48.950;8.970;2023-01-08T12:13:12;3.83;;;2.20;;
5343;SDS011;2694;48.950;8.970;2023-01-08T12:15:50;2.38;;;1.35;;
5343;SDS011;2694;48.950;8.970;2023-01-08T12:18:40;1.80;;;1.00;;
5343;SDS011;2694;48.950;8.970;2023-01-08T12:21:29;3.08;;;1.40;;
5343;SDS011;2694;48.950;8.970;2023-01-08T12:24:06;2.40;;;1.08;;
5343;SDS011;2694;48.950;8.970;2023-01-08T12:26:48;1.30;;;0.70;;
5343;SDS011;2694;48.950;8.970;2023-01-08T12:29:26;0.60;;;0.40;;
5343;SDS011;2694;48.950;8.970;2023-01-08T12:32:13;0.82;;;0.35;;
5343;SDS011;2694;48.950;8.970;2023-01-08T12:34:50;0.70;;;0.40;;
5343;SDS011;2694;48.950;8.970;2023-01-08T12:37:26;1.00;;;0.40;;
5343;SDS011;2694;48.950;8.970;2023-01-08T12:40:02;0.60;;;0.40;;
5343;SDS011;2694;48.950;8.970;2023-01-08T12:42:38;0.60;;;0.30;;
5343;SDS011;2694;48.950;8.970;2023-01-08T12:45:13;0.73;;;0.30;;
5343;SDS011;2694;48.950;8.970;2023-01-08T12:47:44;0.50;;;0.30;;
5343;SDS011;2694;48.950;8.970;2023-01-08T12:50:21;0.93;;;0.40;;
5343;SDS011;2694;48.950;8.970;2023-01-08T12:52:58;0.70;;;0.33;;
5343;SDS011;2694;48.950;8.970;2023-01-08T12:55:37;0.60;;;0.30;;
5343;SDS011;2694;48.950;8.970;2023-01-08T12:58:13;0.90;;;0.30;;
5343;SDS011;2694;48.950;8.970;2023-01-08T13:00:48;0.73;;;0.30;;
5343;SDS011;2694;48.950;8.970;2023-01-08T13:03:22;0.90;;;0.40;;
5343;SDS011;2694;48.950;8.970;2023-01-08T13:06:02;0.60;;;0.30;;
5343;SDS011;2694;48.950;8.970;2023-01-08T13:08:32;0.95;;;0.30;;
5343;SDS011;2694;48.950;8.970;2023-01-08T13:11:03;0.95;;;0.40;;
5343;SDS011;2694;48.950;8.970;2023-01-08T13:13:31;0.95;;;0.30;;
5343;SDS011;2694;48.950;8.970;2023-01-08T13:16:07;0.98;;;0.50;;
5343;SDS011;2694;48.950;8.970;2023-01-08T13:18:51;0.50;;;0.20;;
5343;SDS011;2694;48.950;8.970;2023-01-08T13:21:26;0.60;;;0.30;;
5343;SDS011;2694;48.950;8.970;2023-01-08T13:23:59;0.70;;;0.40;;
5343;SDS011;2694;48.950;8.970;2023-01-08T13:26:31;0.52;;;0.30;;
5343;SDS011;2694;48.950;8.970;2023-01-08T13:29:06;0.55;;;0.30;;
5343;SDS011;2694;48.950;8.970;2023-01-08T13:31:48;0.50;;;0.20;;
5343;SDS011;2694;48.950;8.970;2023-01-08T13:34:17;1.00;;;0.30;;
5343;SDS011;2694;48.950;8.970;2023-01-08T13:36:59;2.85;;;0.50;;
5343;SDS011;2694;48.950;8.970;2023-01-08T13:39:30;0.70;;;0.30;;
5343;SDS011;2694;48.950;8.970;2023-01-08T13:42:01;0.70;;;0.30;;
5343;SDS011;2694;48.950;8.970;2023-01-08T13:44:39;0.60;;;0.30;;
5343;SDS011;2694;48.950;8.970;2023-01-08T13:47:15;1.70;;;0.90;;
5343;SDS011;2694;48.950;8.970;2023-01-08T13:49:46;1.60;;;0.90;;
5343;SDS011;2694;48.950;8.970;2023-01-08T13:55:10;3.97;;;2.10;;
5343;SDS011;2694;48.950;8.970;2023-01-08T13:57:42;1.52;;;0.70;;
5343;SDS011;2694;48.950;8.970;2023-01-08T14:00:17;4.47;;;1.58;;
5343;SDS011;2694;48.950;8.970;2023-01-08T14:02:47;0.60;;;0.30;;
5343;SDS011;2694;48.950;8.970;2023-01-08T14:05:20;2.47;;;1.30;;
5343;SDS011;2694;48.950;8.970;2023-01-08T14:07:49;3.50;;;1.83;;
5343;SDS011;2694;48.950;8.970;2023-01-08T14:10:17;7.90;;;3.37;;
5343;SDS011;2694;48.950;8.970;2023-01-08T14:12:45;3.47;;;1.63;;
5343;SDS011;2694;48.950;8.970;2023-01-08T14:15:16;0.50;;;0.22;;
5343;SDS011;2694;48.950;8.970;2023-01-08T14:17:48;0.60;;;0.40;;
5343;SDS011;2694;48.950;8.970;2023-01-08T14:20:19;0.70;;;0.40;;
5343;SDS011;2694;48.950;8.970;2023-01-08T14:22:52;1.20;;;0.80;;
5343;SDS011;2694;48.950;8.970;2023-01-08T14:25:19;1.33;;;0.60;;
5343;SDS011;2694;48.950;8.970;2023-01-08T14:28:00;2.20;;;0.40;;
5343;SDS011;2694;48.950;8.970;2023-01-08T14:30:28;1.40;;;0.70;;
5343;SDS011;2694;48.950;8.970;2023-01-08T14:32:55;2.45;;;1.00;;
5343;SDS011;2694;48.950;8.970;2023-01-08T14:35:26;1.60;;;0.60;;
5343;SDS011;2694;48.950;8.970;2023-01-08T14:37:57;1.27;;;0.60;;
5343;SDS011;2694;48.950;8.970;2023-01-08T14:40:29;2.00;;;1.00;;
5343;SDS011;2694;48.950;8.970;2023-01-08T14:43:01;1.43;;;1.00;;
5343;SDS011;2694;48.950;8.970;2023-01-08T14:45:33;1.00;;;0.50;;
5343;SDS011;2694;48.950;8.970;2023-01-08T14:48:07;0.90;;;0.60;;
5343;SDS011;2694;48.950;8.970;2023-01-08T14:50:37;0.80;;;0.70;;
5343;SDS011;2694;48.950;8.970;2023-01-08T14:53:06;0.90;;;0.50;;
5343;SDS011;2694;48.950;8.970;2023-01-08T14:55:40;0.90;;;0.60;;
5343;SDS011;2694;48.950;8.970;2023-01-08T14:58:13;0.70;;;0.40;;
5343;SDS011;2694;48.950;8.970;2023-01-08T15:00:44;0.90;;;0.40;;
5343;SDS011;2694;48.950;8.970;2023-01-08T15:03:22;0.70;;;0.30;;
5343;SDS011;2694;48.950;8.970;2023-01-08T15:05:58;0.60;;;0.30;;
5343;SDS011;2694;48.950;8.970;2023-01-08T15:08:26;0.77;;;0.40;;
5343;SDS011;2694;48.950;8.970;2023-01-08T15:10:58;0.70;;;0.47;;
5343;SDS011;2694;48.950;8.970;2023-01-08T15:13:32;1.20;;;0.30;;
5343;SDS011;2694;48.950;8.970;2023-01-08T15:16:05;0.60;;;0.40;;
5343;SDS011;2694;48.950;8.970;2023-01-08T15:18:40;0.90;;;0.32;;
5343;SDS011;2694;48.950;8.970;2023-01-08T15:21:14;0.90;;;0.40;;
5343;SDS011;2694;48.950;8.970;2023-01-08T15:23:45;0.80;;;0.40;;
5343;SDS011;2694;48.950;8.970;2023-01-08T15:26:14;1.00;;;0.50;;
5343;SDS011;2694;48.950;8.970;2023-01-08T15:28:44;0.60;;;0.40;;
5343;SDS011;2694;48.950;8.970;2023-01-08T15:31:26;0.75;;;0.40;;
5343;SDS011;2694;48.950;8.970;2023-01-08T15:33:54;1.90;;;0.60;;
5343;SDS011;2694;48.950;8.970;2023-01-08T15:36:22;0.80;;;0.40;;
5343;SDS011;2694;48.950;8.970;2023-01-08T15:38:49;0.80;;;0.40;;